• Join FlightAware (Why Join?)
  • Login
  • US Flag 
02:57AM EDT


 

Airport Tracker/Info


-or-


 

Live Flight TrackerFlight Track Log ✈ CPT8773 ✈ 06-Dec-2013 ✈ KCPR - KCOD

Flight Track Log - Related Links

Times and Time Zones

All times are in EST time to prevent confusion due to time zone crossing. See the CPT8773 flight status page for this flight to view local times or setup timezone preferences in your user account.

Time Position Orientation Groundspeed Altitude Reporting Facility
EST Latitude Longitude Course Direction KTS MPH feet Rate Location/Type
10:16AM 42.9486 -106.5050 351° North 108 124 8,200  Level Salt Lake Center
10:17AM 42.9864 -106.5086 356° North 115 132 9,300 900 Climbing Denver Center
10:18AM 43.0183 -106.5139 353° North 118 136 10,200 840 Climbing Denver Center
10:19AM 43.0497 -106.5156 358° North 118 136 11,100 840 Climbing Denver Center
10:20AM 43.0671 -106.7070 307° West  Level Estimated
10:20AM 43.0867 -106.5192 356° North 119 137 12,000  Level Denver Center
10:21AM 43.1063 -106.7153 351° North  Level FlightAware Approximate
10:21AM 43.1219 -106.5222 356° North 126 145 12,000  Level Denver Center
10:22AM 43.1717 -106.5272 356° North 151 174 12,100  Climbing Denver Center
10:23AM 43.2147 -106.5328 355° North 158 182 12,100  Level Denver Center
10:24AM 43.2469 -106.5675 322° Northwest 156 180 12,100  Level Denver Center
10:25AM 43.2722 -106.6211 303° West 152 175 12,100 -60 Level Denver Center
10:26AM 43.2942 -106.6686 302° West 152 175 12,000 -60 Descending Salt Lake Center
10:27AM 43.3181 -106.7133 306° West 152 175 12,000  Level Salt Lake Center
10:28AM 43.3458 -106.7653 306° West 151 174 12,000  Level Salt Lake Center
10:29AM 43.3689 -106.8103 305° West 151 174 12,000  Level Salt Lake Center
10:30AM 43.3919 -106.8542 306° West 148 170 12,000  Level Salt Lake Center
10:31AM 43.4186 -106.9044 306° West 147 169 12,000  Level Salt Lake Center
10:32AM 43.4436 -106.9528 305° West 147 169 12,000  Level Salt Lake Center
10:33AM 43.4683 -106.9975 307° West 147 169 12,000  Level Salt Lake Center
10:34AM 43.4919 -107.0444 305° West 148 170 12,000  Level Salt Lake Center
10:35AM 43.5158 -107.0883 307° West 145 167 12,100  Climbing Salt Lake Center
10:36AM 43.5389 -107.1339 305° West 145 167 12,100  Level Salt Lake Center
10:37AM 43.5631 -107.1789 307° West 147 169 12,100 -60 Level Salt Lake Center
10:38AM 43.5875 -107.2225 308° West 145 167 12,000  Descending Salt Lake Center
10:39AM 43.6111 -107.2675 306° West 145 167 12,100  Climbing Salt Lake Center
10:40AM 43.6342 -107.3139 304° West 145 167 12,100  Level Salt Lake Center
10:41AM 43.6628 -107.3689 306° West 146 168 12,100  Level Salt Lake Center
10:42AM 43.6853 -107.4139 305° West 145 167 12,100  Level Salt Lake Center
10:43AM 43.7103 -107.4597 307° West 147 169 12,100  Level Salt Lake Center
10:44AM 43.7331 -107.5033 306° West 145 167 12,100  Level Salt Lake Center
10:45AM 43.7550 -107.5492 304° West 143 165 12,100  Level Salt Lake Center
10:46AM 43.7786 -107.5936 306° West 143 165 12,100  Level Salt Lake Center
10:47AM 43.8017 -107.6378 306° West 143 165 12,100  Level Salt Lake Center
10:48AM 43.8250 -107.6831 306° West 143 165 12,100  Level Salt Lake Center
10:49AM 43.8531 -107.7369 306° West 143 165 12,100  Level Salt Lake Center
10:50AM 43.8769 -107.7825 306° West 145 167 12,100  Level Salt Lake Center
10:52AM 43.9003 -107.8292 305° West 146 168 12,100  Level Salt Lake Center
10:53AM 43.9231 -107.8756 304° West 146 168 12,100  Level Salt Lake Center
10:54AM 43.9467 -107.9211 306° West 146 168 12,100  Level Salt Lake Center
10:55AM 43.9706 -107.9672 306° West 146 168 12,100  Level Salt Lake Center
10:56AM 43.9975 -108.0081 313° West 146 168 12,100 -60 Level Salt Lake Center
10:57AM 44.0247 -108.0508 312° West 147 169 12,000 -60 Descending Salt Lake Center
10:58AM 44.0483 -108.0981 305° West 147 169 12,000  Level Salt Lake Center
10:59AM 44.0767 -108.1539 305° West 147 169 12,000  Level Salt Lake Center
11:00AM 44.1008 -108.2000 306° West 147 169 12,000  Level Salt Lake Center
11:01AM 44.1250 -108.2478 305° West 148 170 12,000  Level Salt Lake Center
11:02AM 44.1486 -108.2947 305° West 149 171 12,000  Level Salt Lake Center
11:03AM 44.1842 -108.3258 328° Northwest 153 176 12,000  Level Salt Lake Center
11:04AM 44.2183 -108.3561 328° Northwest 149 171 12,000  Level Salt Lake Center
11:05AM 44.2536 -108.3869 328° Northwest 149 171 12,000  Level Salt Lake Center
11:06AM 44.2889 -108.4172 328° Northwest 149 171 12,000  Level Salt Lake Center
11:07AM 44.3308 -108.4547 327° Northwest 149 171 12,000  Level Salt Lake Center
11:08AM 44.3664 -108.4861 328° Northwest 150 173 12,000  Level Salt Lake Center
11:09AM 44.4014 -108.5164 328° Northwest 149 171 12,000 -420 Level Salt Lake Center
11:10AM 44.4378 -108.5483 328° Northwest 150 173 11,200 -840 Descending Salt Lake Center
11:11AM 44.4767 -108.5828 328° Northwest 156 180 10,400 -780 Descending Salt Lake Center
11:12AM 44.5158 -108.6194 326° Northwest 162 186 9,700 -660 Descending Salt Lake Center
11:13AM 44.5575 -108.6542 329° Northwest 168 193 9,100 -480 Descending Salt Lake Center
11:14AM 44.5961 -108.6894 327° Northwest 168 193 8,800 -540 Descending Salt Lake Center
11:15AM 44.6394 -108.7397 320° Northwest 168 193 8,100 -420 Descending Salt Lake Center
11:16AM 44.6481 -108.7856 285° West 157 181 8,000 -240 Descending Salt Lake Center
11:17AM 44.6294 -108.8322 241° Southwest 145 167 7,700 -300 Descending Salt Lake Center
11:18AM 44.6056 -108.8747 232° Southwest 140 161 7,500 -300 Descending Salt Lake Center
11:19AM 44.5828 -108.9150 232° Southwest 137 158 7,200 -300 Descending Salt Lake Center